Terminal Aerodrome Forecast
Issued by NWS Cleveland, OH

Home | Current Version | Previous Version | Graphics & Text | Print | Product List | Glossary On
Versions: 1 2 3 4 5 6 7 8 9 10 11 12 13 14 15 16 17 18 19 20 21 22 23
000
FTUS41 KCLE 160600 AAA
TAFTOL
TAF AMD
KTOL 160646Z 1607/1706 VRB04KT 3SM -RA BR BKN005 OVC012
      TEMPO 1607/1611 1SM -DZ BR OVC004
     FM161100 14006KT 4SM -SHRA BR OVC008
     FM161400 24008KT 4SM -SHRA BR OVC006
     FM170000 25010KT 6SM BR OVC008=

USA.gov is the U.S. government's official web portal to all federal, state and local government web resources and services.